WAT1706 LPPD-LPPS
Flight info
| Callsign | WAT1706 |
|---|---|
| Flight time | 1h 21m |
| Altitude | 27000 |
| Route | AMIXI H100 VSM H104 ETROX/M068F370 DCT IRKID/N0388F230 UL600 ILCAT |
| Aircraft | A319/M-SDE3FGHIRWY/LB1 |
Departure
| Time | 2026-04-23 20:09 |
|---|---|
| Airport | João Paulo II Airport (LPPD) |
Arrival
| Time | 2026-04-23 21:30 |
|---|---|
| Airport | Porto Santo Airport (LPPS) |
| Time | Latitude | Longitude | Altitude | Speed | Heading |
|---|---|---|---|---|---|
| 2026-04-23 19:43 | 37.74887 | -25.71175 | 268 ft | 0 kts | 22° |
| 2026-04-23 19:44 | 37.74887 | -25.71176 | 268 ft | 0 kts | 22° |
| 2026-04-23 19:54 | 37.74886 | -25.71176 | 268 ft | 0 kts | 22° |
| 2026-04-23 19:56 | 37.74872 | -25.71184 | 268 ft | 4 kts | 25° |
| 2026-04-23 19:56 | 37.74849 | -25.71201 | 268 ft | 4 kts | 43° |
| 2026-04-23 19:57 | 37.74840 | -25.71226 | 268 ft | 2 kts | 110° |
| 2026-04-23 19:57 | 37.74841 | -25.71228 | 268 ft | 1 kts | 111° |
| 2026-04-23 19:58 | 37.74840 | -25.71227 | 268 ft | 0 kts | 112° |
| 2026-04-23 19:58 | 37.74840 | -25.71226 | 268 ft | 0 kts | 112° |
| 2026-04-23 20:00 | 37.74840 | -25.71225 | 268 ft | 1 kts | 113° |
| 2026-04-23 20:00 | 37.74821 | -25.71170 | 268 ft | 12 kts | 112° |
| 2026-04-23 20:00 | 37.74783 | -25.71047 | 268 ft | 18 kts | 111° |
| 2026-04-23 20:00 | 37.74731 | -25.70879 | 268 ft | 23 kts | 111° |
| 2026-04-23 20:01 | 37.74673 | -25.70700 | 268 ft | 18 kts | 112° |
| 2026-04-23 20:01 | 37.74620 | -25.70536 | 268 ft | 22 kts | 112° |
| 2026-04-23 20:01 | 37.74552 | -25.70420 | 268 ft | 12 kts | 140° |
| 2026-04-23 20:01 | 37.74503 | -25.70371 | 268 ft | 0 kts | 140° |
| 2026-04-23 20:02 | 37.74501 | -25.70370 | 268 ft | 0 kts | 140° |
| 2026-04-23 20:04 | 37.74502 | -25.70370 | 268 ft | 0 kts | 140° |
| 2026-04-23 20:05 | 37.74501 | -25.70369 | 268 ft | 1 kts | 141° |
| 2026-04-23 20:05 | 37.74460 | -25.70329 | 268 ft | 18 kts | 143° |
| 2026-04-23 20:06 | 37.74345 | -25.70188 | 268 ft | 27 kts | 124° |
| 2026-04-23 20:06 | 37.74259 | -25.69955 | 268 ft | 32 kts | 113° |
| 2026-04-23 20:06 | 37.74180 | -25.69702 | 268 ft | 28 kts | 110° |
| 2026-04-23 20:06 | 37.74102 | -25.69462 | 268 ft | 31 kts | 110° |
| 2026-04-23 20:07 | 37.74018 | -25.69194 | 268 ft | 28 kts | 110° |
| 2026-04-23 20:07 | 37.73948 | -25.68967 | 268 ft | 28 kts | 114° |
| 2026-04-23 20:07 | 37.73880 | -25.68756 | 268 ft | 26 kts | 111° |
| 2026-04-23 20:07 | 37.73819 | -25.68591 | 268 ft | 18 kts | 138° |
| 2026-04-23 20:08 | 37.73741 | -25.68508 | 268 ft | 12 kts | 96° |
| 2026-04-23 20:08 | 37.73798 | -25.68501 | 268 ft | 13 kts | 291° |
| 2026-04-23 20:08 | 37.73880 | -25.68778 | 268 ft | 77 kts | 290° |
| 2026-04-23 20:08 | 37.74198 | -25.69738 | 369 ft | 148 kts | 290° |
| 2026-04-23 20:09 | 37.74657 | -25.71039 | 991 ft | 175 kts | 290° |
| 2026-04-23 20:09 | 37.74995 | -25.72475 | 1706 ft | 164 kts | 275° |
| 2026-04-23 20:09 | 37.74986 | -25.73995 | 2262 ft | 192 kts | 266° |
| 2026-04-23 20:09 | 37.74901 | -25.75862 | 2832 ft | 233 kts | 269° |
| 2026-04-23 20:10 | 37.74900 | -25.77295 | 3400 ft | 250 kts | 271° |
| 2026-04-23 20:10 | 37.75008 | -25.80238 | 5139 ft | 253 kts | 273° |
| 2026-04-23 20:10 | 37.75144 | -25.82447 | 6580 ft | 252 kts | 275° |
| 2026-04-23 20:10 | 37.75360 | -25.84650 | 7919 ft | 253 kts | 278° |
| 2026-04-23 20:11 | 37.75306 | -25.86864 | 9244 ft | 259 kts | 253° |
| 2026-04-23 20:11 | 37.74254 | -25.88770 | 10340 ft | 280 kts | 223° |
| 2026-04-23 20:11 | 37.72373 | -25.89844 | 10959 ft | 320 kts | 194° |
| 2026-04-23 20:11 | 37.70030 | -25.89678 | 11478 ft | 359 kts | 167° |
| 2026-04-23 20:12 | 37.67773 | -25.88161 | 12329 ft | 378 kts | 141° |
| 2026-04-23 20:12 | 37.66056 | -25.85592 | 13345 ft | 389 kts | 121° |
| 2026-04-23 20:12 | 37.64740 | -25.82573 | 14264 ft | 396 kts | 116° |
| 2026-04-23 20:12 | 37.63515 | -25.79437 | 15210 ft | 401 kts | 115° |
| 2026-04-23 20:13 | 37.62271 | -25.76256 | 16133 ft | 407 kts | 117° |
| 2026-04-23 20:13 | 37.60817 | -25.73168 | 17033 ft | 413 kts | 126° |
| 2026-04-23 20:13 | 37.58848 | -25.70526 | 17925 ft | 416 kts | 142° |
| 2026-04-23 20:13 | 37.56616 | -25.68165 | 18722 ft | 422 kts | 142° |
| 2026-04-23 20:14 | 37.54311 | -25.65829 | 19460 ft | 428 kts | 145° |
| 2026-04-23 20:14 | 37.52067 | -25.63307 | 20176 ft | 438 kts | 132° |
| 2026-04-23 20:14 | 37.50344 | -25.60099 | 20894 ft | 446 kts | 119° |
| 2026-04-23 20:14 | 37.48881 | -25.56664 | 21604 ft | 453 kts | 117° |
| 2026-04-23 20:15 | 37.47419 | -25.53110 | 22311 ft | 460 kts | 117° |
| 2026-04-23 20:15 | 37.45933 | -25.49512 | 23025 ft | 467 kts | 117° |
| 2026-04-23 20:15 | 37.44411 | -25.45874 | 23688 ft | 473 kts | 117° |
| 2026-04-23 20:15 | 37.42857 | -25.42195 | 24315 ft | 478 kts | 118° |
| 2026-04-23 20:16 | 37.41282 | -25.38492 | 24947 ft | 482 kts | 118° |
| 2026-04-23 20:16 | 37.39692 | -25.34761 | 25543 ft | 487 kts | 118° |
| 2026-04-23 20:16 | 37.38174 | -25.31208 | 26100 ft | 491 kts | 118° |
| 2026-04-23 20:16 | 37.36587 | -25.27495 | 26628 ft | 496 kts | 118° |
| 2026-04-23 20:17 | 37.34947 | -25.23659 | 26890 ft | 499 kts | 118° |
| 2026-04-23 20:17 | 37.33303 | -25.19822 | 26945 ft | 499 kts | 118° |
| 2026-04-23 20:17 | 37.31658 | -25.15986 | 26945 ft | 499 kts | 118° |
| 2026-04-23 20:17 | 37.30010 | -25.12149 | 26946 ft | 499 kts | 118° |
| 2026-04-23 20:18 | 37.28361 | -25.08318 | 26944 ft | 499 kts | 118° |
| 2026-04-23 20:18 | 37.26710 | -25.04488 | 26946 ft | 499 kts | 118° |
| 2026-04-23 20:18 | 37.25055 | -25.00652 | 26948 ft | 499 kts | 118° |
| 2026-04-23 20:18 | 37.23400 | -24.96821 | 26948 ft | 499 kts | 118° |
| 2026-04-23 20:19 | 37.21747 | -24.92997 | 26950 ft | 499 kts | 118° |
| 2026-04-23 20:19 | 37.20090 | -24.89171 | 26951 ft | 499 kts | 118° |
| 2026-04-23 20:19 | 37.18432 | -24.85346 | 26949 ft | 499 kts | 118° |
| 2026-04-23 20:19 | 37.16774 | -24.81525 | 26951 ft | 499 kts | 118° |
| 2026-04-23 20:20 | 37.15114 | -24.77704 | 26957 ft | 499 kts | 118° |
| 2026-04-23 20:20 | 37.13453 | -24.73886 | 26953 ft | 499 kts | 118° |
| 2026-04-23 20:20 | 37.11789 | -24.70063 | 26953 ft | 499 kts | 118° |
| 2026-04-23 20:20 | 37.10126 | -24.66250 | 26956 ft | 499 kts | 118° |
| 2026-04-23 20:21 | 37.08454 | -24.62422 | 26955 ft | 499 kts | 118° |
| 2026-04-23 20:21 | 37.06780 | -24.58615 | 26958 ft | 499 kts | 118° |
| 2026-04-23 20:21 | 37.05106 | -24.54806 | 26958 ft | 499 kts | 118° |
| 2026-04-23 20:21 | 37.03431 | -24.50991 | 26956 ft | 499 kts | 118° |
| 2026-04-23 20:22 | 37.01760 | -24.47180 | 26956 ft | 499 kts | 118° |
| 2026-04-23 20:22 | 37.00089 | -24.43367 | 26958 ft | 499 kts | 118° |
| 2026-04-23 20:22 | 36.98440 | -24.39607 | 26959 ft | 499 kts | 118° |
| 2026-04-23 20:22 | 36.96767 | -24.35798 | 26959 ft | 500 kts | 118° |
| 2026-04-23 20:23 | 36.95094 | -24.31992 | 26964 ft | 500 kts | 118° |
| 2026-04-23 20:23 | 36.93418 | -24.28185 | 26964 ft | 500 kts | 118° |
| 2026-04-23 20:23 | 36.91743 | -24.24383 | 26965 ft | 500 kts | 118° |
| 2026-04-23 20:23 | 36.90061 | -24.20576 | 26966 ft | 500 kts | 118° |
| 2026-04-23 20:24 | 36.88378 | -24.16771 | 26965 ft | 500 kts | 118° |
| 2026-04-23 20:24 | 36.86696 | -24.12973 | 26966 ft | 500 kts | 118° |
| 2026-04-23 20:24 | 36.85009 | -24.09171 | 26966 ft | 500 kts | 118° |
| 2026-04-23 20:24 | 36.83323 | -24.05373 | 26967 ft | 500 kts | 119° |
| 2026-04-23 20:25 | 36.81637 | -24.01583 | 26967 ft | 500 kts | 119° |
| 2026-04-23 20:25 | 36.79947 | -23.97785 | 26970 ft | 500 kts | 119° |
| 2026-04-23 20:25 | 36.78252 | -23.93981 | 26971 ft | 500 kts | 119° |
| 2026-04-23 20:25 | 36.76558 | -23.90184 | 26970 ft | 500 kts | 119° |
| 2026-04-23 20:26 | 36.74888 | -23.86445 | 26971 ft | 500 kts | 119° |
| 2026-04-23 20:26 | 36.73193 | -23.82655 | 26970 ft | 500 kts | 119° |
| 2026-04-23 20:26 | 36.71497 | -23.78867 | 26971 ft | 500 kts | 119° |
| 2026-04-23 20:26 | 36.69801 | -23.75083 | 26971 ft | 501 kts | 119° |
| 2026-04-23 20:27 | 36.68103 | -23.71297 | 26974 ft | 500 kts | 119° |
| 2026-04-23 20:27 | 36.66403 | -23.67513 | 26975 ft | 500 kts | 119° |
| 2026-04-23 20:27 | 36.64703 | -23.63734 | 26977 ft | 500 kts | 119° |
| 2026-04-23 20:27 | 36.63002 | -23.59954 | 26977 ft | 501 kts | 119° |
| 2026-04-23 20:28 | 36.61293 | -23.56164 | 26978 ft | 501 kts | 119° |
| 2026-04-23 20:28 | 36.59589 | -23.52387 | 26980 ft | 501 kts | 119° |
| 2026-04-23 20:28 | 36.57880 | -23.48605 | 26980 ft | 501 kts | 119° |
| 2026-04-23 20:28 | 36.56174 | -23.44832 | 26978 ft | 501 kts | 119° |
| 2026-04-23 20:29 | 36.55039 | -23.42326 | 26982 ft | 501 kts | 119° |
| 2026-04-23 20:29 | 36.52769 | -23.37319 | 26980 ft | 501 kts | 119° |
| 2026-04-23 20:29 | 36.51612 | -23.34768 | 26983 ft | 501 kts | 119° |
| 2026-04-23 20:29 | 36.49341 | -23.29769 | 26983 ft | 501 kts | 119° |
| 2026-04-23 20:30 | 36.48204 | -23.27270 | 26985 ft | 501 kts | 119° |
| 2026-04-23 20:30 | 36.44769 | -23.19727 | 26986 ft | 501 kts | 119° |
| 2026-04-23 20:30 | 36.43050 | -23.15961 | 26985 ft | 501 kts | 119° |
| 2026-04-23 20:31 | 36.41327 | -23.12188 | 26984 ft | 501 kts | 119° |
| 2026-04-23 20:31 | 36.39607 | -23.08425 | 26991 ft | 501 kts | 119° |
| 2026-04-23 20:31 | 36.37885 | -23.04664 | 26991 ft | 502 kts | 119° |
| 2026-04-23 20:31 | 36.36157 | -23.00893 | 26990 ft | 502 kts | 119° |
| 2026-04-23 20:32 | 36.34428 | -22.97125 | 26989 ft | 502 kts | 119° |
| 2026-04-23 20:32 | 36.32701 | -22.93367 | 26991 ft | 502 kts | 119° |
| 2026-04-23 20:32 | 36.30971 | -22.89605 | 26990 ft | 502 kts | 119° |
| 2026-04-23 20:32 | 36.29240 | -22.85844 | 26992 ft | 502 kts | 119° |
| 2026-04-23 20:33 | 36.27529 | -22.82133 | 26991 ft | 502 kts | 119° |
| 2026-04-23 20:33 | 36.25796 | -22.78375 | 26991 ft | 502 kts | 119° |
| 2026-04-23 20:33 | 36.24041 | -22.74576 | 26988 ft | 502 kts | 119° |
| 2026-04-23 20:33 | 36.22323 | -22.70863 | 26993 ft | 502 kts | 119° |
| 2026-04-23 20:34 | 36.20588 | -22.67113 | 26994 ft | 503 kts | 119° |
| 2026-04-23 20:34 | 36.18846 | -22.63356 | 26993 ft | 503 kts | 119° |
| 2026-04-23 20:34 | 36.17105 | -22.59603 | 26993 ft | 503 kts | 119° |
| 2026-04-23 20:34 | 36.15364 | -22.55855 | 26999 ft | 503 kts | 119° |
| 2026-04-23 20:35 | 36.13611 | -22.52087 | 26997 ft | 503 kts | 119° |
| 2026-04-23 20:35 | 36.11866 | -22.48338 | 26997 ft | 503 kts | 119° |
| 2026-04-23 20:35 | 36.10140 | -22.44636 | 26996 ft | 503 kts | 119° |
| 2026-04-23 20:35 | 36.08371 | -22.40843 | 27001 ft | 503 kts | 119° |
| 2026-04-23 20:36 | 36.06642 | -22.37142 | 27000 ft | 503 kts | 119° |
| 2026-04-23 20:36 | 36.04892 | -22.33399 | 27001 ft | 503 kts | 119° |
| 2026-04-23 20:36 | 36.03140 | -22.29658 | 27001 ft | 503 kts | 119° |
| 2026-04-23 20:36 | 36.01382 | -22.25907 | 27005 ft | 503 kts | 119° |
| 2026-04-23 20:37 | 35.99628 | -22.22167 | 27006 ft | 503 kts | 119° |
| 2026-04-23 20:37 | 35.97868 | -22.18421 | 27004 ft | 503 kts | 119° |
| 2026-04-23 20:37 | 35.96110 | -22.14681 | 27005 ft | 503 kts | 119° |
| 2026-04-23 20:37 | 35.94348 | -22.10940 | 27008 ft | 504 kts | 119° |
| 2026-04-23 20:38 | 35.92588 | -22.07205 | 27006 ft | 504 kts | 119° |
| 2026-04-23 20:38 | 35.90826 | -22.03470 | 27007 ft | 504 kts | 119° |
| 2026-04-23 20:38 | 35.89082 | -21.99778 | 27009 ft | 504 kts | 119° |
| 2026-04-23 20:38 | 35.87319 | -21.96048 | 27010 ft | 504 kts | 119° |
| 2026-04-23 20:39 | 35.85553 | -21.92317 | 27012 ft | 504 kts | 119° |
| 2026-04-23 20:39 | 35.83781 | -21.88577 | 27012 ft | 504 kts | 119° |
| 2026-04-23 20:39 | 35.82008 | -21.84840 | 27012 ft | 505 kts | 119° |
| 2026-04-23 20:39 | 35.80235 | -21.81107 | 27013 ft | 505 kts | 119° |
| 2026-04-23 20:40 | 35.78458 | -21.77369 | 27014 ft | 505 kts | 119° |
| 2026-04-23 20:40 | 35.76684 | -21.73640 | 27016 ft | 505 kts | 120° |
| 2026-04-23 20:40 | 35.74903 | -21.69903 | 27016 ft | 505 kts | 120° |
| 2026-04-23 20:40 | 35.73123 | -21.66172 | 27016 ft | 505 kts | 120° |
| 2026-04-23 20:41 | 35.71340 | -21.62438 | 27013 ft | 505 kts | 120° |
| 2026-04-23 20:41 | 35.69556 | -21.58706 | 27018 ft | 505 kts | 120° |
| 2026-04-23 20:41 | 35.67793 | -21.55020 | 27017 ft | 506 kts | 120° |
| 2026-04-23 20:41 | 35.66005 | -21.51289 | 27021 ft | 506 kts | 120° |
| 2026-04-23 20:42 | 35.64219 | -21.47565 | 27020 ft | 506 kts | 120° |
| 2026-04-23 20:42 | 35.62430 | -21.43839 | 27022 ft | 506 kts | 120° |
| 2026-04-23 20:42 | 35.60638 | -21.40111 | 27023 ft | 506 kts | 120° |
| 2026-04-23 20:42 | 35.58844 | -21.36382 | 27024 ft | 506 kts | 120° |
| 2026-04-23 20:43 | 35.57050 | -21.32656 | 27023 ft | 506 kts | 120° |
| 2026-04-23 20:43 | 35.55254 | -21.28933 | 27023 ft | 506 kts | 120° |
| 2026-04-23 20:43 | 35.53462 | -21.25220 | 27025 ft | 506 kts | 120° |
| 2026-04-23 20:43 | 35.51664 | -21.21498 | 27026 ft | 507 kts | 120° |
| 2026-04-23 20:44 | 35.49864 | -21.17778 | 27025 ft | 507 kts | 120° |
| 2026-04-23 20:44 | 35.48065 | -21.14063 | 27025 ft | 507 kts | 120° |
| 2026-04-23 20:44 | 35.46260 | -21.10339 | 27029 ft | 507 kts | 120° |
| 2026-04-23 20:44 | 35.44455 | -21.06620 | 27027 ft | 507 kts | 120° |
| 2026-04-23 20:45 | 35.42650 | -21.02905 | 27028 ft | 507 kts | 120° |
| 2026-04-23 20:45 | 35.40842 | -20.99188 | 27029 ft | 507 kts | 120° |
| 2026-04-23 20:45 | 35.39033 | -20.95472 | 27029 ft | 507 kts | 120° |
| 2026-04-23 20:45 | 35.37222 | -20.91757 | 27029 ft | 508 kts | 120° |
| 2026-04-23 20:46 | 35.35410 | -20.88045 | 27028 ft | 508 kts | 120° |
| 2026-04-23 20:46 | 35.33597 | -20.84334 | 27029 ft | 508 kts | 120° |
| 2026-04-23 20:46 | 35.31782 | -20.80622 | 27028 ft | 508 kts | 120° |
| 2026-04-23 20:46 | 35.29987 | -20.76955 | 27030 ft | 508 kts | 120° |
| 2026-04-23 20:47 | 35.28170 | -20.73247 | 27031 ft | 508 kts | 120° |
| 2026-04-23 20:47 | 35.26347 | -20.69531 | 27028 ft | 508 kts | 120° |
| 2026-04-23 20:47 | 35.24526 | -20.65822 | 27034 ft | 509 kts | 120° |
| 2026-04-23 20:47 | 35.22698 | -20.62105 | 27034 ft | 509 kts | 120° |
| 2026-04-23 20:48 | 35.20872 | -20.58395 | 27032 ft | 509 kts | 120° |
| 2026-04-23 20:48 | 35.19049 | -20.54695 | 27034 ft | 509 kts | 120° |
| 2026-04-23 20:48 | 35.17220 | -20.50986 | 27033 ft | 509 kts | 120° |
| 2026-04-23 20:48 | 35.15385 | -20.47271 | 27037 ft | 509 kts | 120° |
| 2026-04-23 20:49 | 35.13553 | -20.43565 | 27035 ft | 510 kts | 120° |
| 2026-04-23 20:49 | 35.11723 | -20.39865 | 27037 ft | 510 kts | 120° |
| 2026-04-23 20:49 | 35.09886 | -20.36156 | 27036 ft | 510 kts | 120° |
| 2026-04-23 20:49 | 35.08047 | -20.32449 | 27037 ft | 510 kts | 120° |
| 2026-04-23 20:50 | 35.06208 | -20.28743 | 27037 ft | 511 kts | 120° |
| 2026-04-23 20:50 | 35.04362 | -20.25028 | 27039 ft | 510 kts | 121° |
| 2026-04-23 20:50 | 35.02517 | -20.21319 | 27040 ft | 511 kts | 121° |
| 2026-04-23 20:50 | 35.00698 | -20.17666 | 27039 ft | 511 kts | 121° |
| 2026-04-23 20:51 | 34.98848 | -20.13955 | 27039 ft | 511 kts | 121° |
| 2026-04-23 20:51 | 34.97001 | -20.10255 | 27040 ft | 511 kts | 121° |
| 2026-04-23 20:51 | 34.95154 | -20.06558 | 27042 ft | 511 kts | 121° |
| 2026-04-23 20:51 | 34.93301 | -20.02853 | 27045 ft | 512 kts | 121° |
| 2026-04-23 20:52 | 34.91449 | -19.99153 | 27042 ft | 512 kts | 121° |
| 2026-04-23 20:52 | 34.89591 | -19.95445 | 27042 ft | 512 kts | 121° |
| 2026-04-23 20:52 | 34.87733 | -19.91741 | 27042 ft | 513 kts | 121° |
| 2026-04-23 20:52 | 34.85867 | -19.88027 | 27045 ft | 513 kts | 121° |
| 2026-04-23 20:53 | 34.84005 | -19.84323 | 27043 ft | 513 kts | 121° |
| 2026-04-23 20:53 | 34.82144 | -19.80624 | 27045 ft | 512 kts | 121° |
| 2026-04-23 20:53 | 34.80281 | -19.76926 | 27047 ft | 513 kts | 121° |
| 2026-04-23 20:53 | 34.78415 | -19.73226 | 27053 ft | 513 kts | 121° |
| 2026-04-23 20:54 | 34.76545 | -19.69523 | 27046 ft | 513 kts | 121° |
| 2026-04-23 20:54 | 34.74702 | -19.65875 | 27053 ft | 513 kts | 121° |
| 2026-04-23 20:54 | 34.72832 | -19.62179 | 27055 ft | 513 kts | 121° |
| 2026-04-23 20:54 | 34.70962 | -19.58488 | 27055 ft | 513 kts | 121° |
| 2026-04-23 20:55 | 34.69088 | -19.54791 | 27049 ft | 514 kts | 121° |
| 2026-04-23 20:55 | 34.67211 | -19.51093 | 27054 ft | 514 kts | 121° |
| 2026-04-23 20:55 | 34.65339 | -19.47407 | 27053 ft | 514 kts | 121° |
| 2026-04-23 20:55 | 34.63457 | -19.43708 | 27055 ft | 514 kts | 121° |
| 2026-04-23 20:56 | 34.61578 | -19.40017 | 27053 ft | 514 kts | 121° |
| 2026-04-23 20:56 | 34.59699 | -19.36330 | 27055 ft | 514 kts | 121° |
| 2026-04-23 20:56 | 34.57819 | -19.32645 | 27059 ft | 514 kts | 121° |
| 2026-04-23 20:56 | 34.55930 | -19.28946 | 27059 ft | 514 kts | 121° |
| 2026-04-23 20:57 | 34.54048 | -19.25264 | 27055 ft | 514 kts | 121° |
| 2026-04-23 20:57 | 34.52161 | -19.21576 | 27057 ft | 514 kts | 121° |
| 2026-04-23 20:57 | 34.50273 | -19.17893 | 27058 ft | 515 kts | 121° |
| 2026-04-23 20:57 | 34.48387 | -19.14215 | 27059 ft | 514 kts | 121° |
| 2026-04-23 20:58 | 34.46498 | -19.10534 | 27059 ft | 514 kts | 121° |
| 2026-04-23 20:58 | 34.44608 | -19.06857 | 27059 ft | 514 kts | 122° |
| 2026-04-23 20:58 | 34.42715 | -19.03177 | 27062 ft | 514 kts | 122° |
| 2026-04-23 20:58 | 34.40825 | -18.99507 | 27064 ft | 514 kts | 122° |
| 2026-04-23 20:59 | 34.38933 | -18.95837 | 27060 ft | 514 kts | 122° |
| 2026-04-23 20:59 | 34.37036 | -18.92160 | 27062 ft | 514 kts | 122° |
| 2026-04-23 20:59 | 34.35141 | -18.88492 | 27065 ft | 514 kts | 122° |
| 2026-04-23 20:59 | 34.33244 | -18.84824 | 27066 ft | 514 kts | 122° |
| 2026-04-23 21:00 | 34.31345 | -18.81154 | 27066 ft | 514 kts | 122° |
| 2026-04-23 21:00 | 34.29468 | -18.77533 | 27065 ft | 514 kts | 122° |
| 2026-04-23 21:00 | 34.27572 | -18.73877 | 27065 ft | 513 kts | 122° |
| 2026-04-23 21:00 | 34.25674 | -18.70220 | 27066 ft | 513 kts | 122° |
| 2026-04-23 21:01 | 34.23775 | -18.66567 | 27067 ft | 513 kts | 122° |
| 2026-04-23 21:01 | 34.21871 | -18.62907 | 27067 ft | 513 kts | 122° |
| 2026-04-23 21:01 | 34.19971 | -18.59258 | 27069 ft | 513 kts | 122° |
| 2026-04-23 21:01 | 34.18069 | -18.55610 | 27067 ft | 512 kts | 122° |
| 2026-04-23 21:02 | 34.16169 | -18.51969 | 27070 ft | 512 kts | 122° |
| 2026-04-23 21:02 | 34.14267 | -18.48329 | 27072 ft | 512 kts | 122° |
| 2026-04-23 21:02 | 34.12364 | -18.44691 | 27071 ft | 512 kts | 122° |
| 2026-04-23 21:02 | 34.10460 | -18.41053 | 27072 ft | 512 kts | 122° |
| 2026-04-23 21:03 | 34.08559 | -18.37424 | 27070 ft | 512 kts | 122° |
| 2026-04-23 21:03 | 34.06659 | -18.33800 | 27072 ft | 512 kts | 122° |
| 2026-04-23 21:03 | 34.04783 | -18.30225 | 27072 ft | 511 kts | 122° |
| 2026-04-23 21:03 | 34.02879 | -18.26598 | 27070 ft | 511 kts | 122° |
| 2026-04-23 21:04 | 34.00978 | -18.22979 | 27067 ft | 511 kts | 122° |
| 2026-04-23 21:04 | 33.99074 | -18.19359 | 27075 ft | 511 kts | 122° |
| 2026-04-23 21:04 | 33.97167 | -18.15736 | 27076 ft | 511 kts | 122° |
| 2026-04-23 21:04 | 33.95264 | -18.12123 | 27075 ft | 511 kts | 122° |
| 2026-04-23 21:05 | 33.93361 | -18.08515 | 27082 ft | 511 kts | 123° |
| 2026-04-23 21:05 | 33.91467 | -18.04890 | 27075 ft | 510 kts | 121° |
| 2026-04-23 21:05 | 33.89682 | -18.01198 | 27078 ft | 510 kts | 119° |
| 2026-04-23 21:05 | 33.87948 | -17.97483 | 27078 ft | 509 kts | 119° |
| 2026-04-23 21:06 | 33.86216 | -17.93764 | 27078 ft | 509 kts | 119° |
| 2026-04-23 21:06 | 33.84474 | -17.90056 | 27078 ft | 509 kts | 120° |
| 2026-04-23 21:06 | 33.82721 | -17.86354 | 27079 ft | 509 kts | 120° |
| 2026-04-23 21:06 | 33.80965 | -17.82662 | 27079 ft | 509 kts | 120° |
| 2026-04-23 21:07 | 33.79203 | -17.78970 | 27078 ft | 508 kts | 120° |
| 2026-04-23 21:07 | 33.77435 | -17.75272 | 27084 ft | 508 kts | 120° |
| 2026-04-23 21:07 | 33.75691 | -17.71628 | 27085 ft | 508 kts | 120° |
| 2026-04-23 21:07 | 33.73927 | -17.67946 | 27081 ft | 508 kts | 120° |
| 2026-04-23 21:08 | 33.72165 | -17.64271 | 27080 ft | 508 kts | 120° |
| 2026-04-23 21:08 | 33.70399 | -17.60592 | 27085 ft | 508 kts | 120° |
| 2026-04-23 21:08 | 33.68631 | -17.56913 | 27086 ft | 508 kts | 120° |
| 2026-04-23 21:08 | 33.66866 | -17.53242 | 27088 ft | 508 kts | 120° |
| 2026-04-23 21:09 | 33.65101 | -17.49575 | 27086 ft | 508 kts | 120° |
| 2026-04-23 21:09 | 33.63332 | -17.45905 | 27071 ft | 507 kts | 120° |
| 2026-04-23 21:09 | 33.61571 | -17.42254 | 26877 ft | 503 kts | 120° |
| 2026-04-23 21:09 | 33.59823 | -17.38633 | 26623 ft | 499 kts | 121° |
| 2026-04-23 21:10 | 33.58089 | -17.35045 | 26369 ft | 496 kts | 121° |
| 2026-04-23 21:10 | 33.56365 | -17.31480 | 26124 ft | 493 kts | 121° |
| 2026-04-23 21:10 | 33.54646 | -17.27930 | 25878 ft | 490 kts | 121° |
| 2026-04-23 21:10 | 33.52939 | -17.24409 | 25595 ft | 487 kts | 121° |
| 2026-04-23 21:11 | 33.51237 | -17.20900 | 24979 ft | 487 kts | 121° |
| 2026-04-23 21:11 | 33.49545 | -17.17413 | 24369 ft | 482 kts | 121° |
| 2026-04-23 21:11 | 33.47889 | -17.14003 | 23768 ft | 477 kts | 122° |
| 2026-04-23 21:11 | 33.46229 | -17.10590 | 23098 ft | 470 kts | 122° |
| 2026-04-23 21:12 | 33.44598 | -17.07238 | 22510 ft | 461 kts | 122° |
| 2026-04-23 21:12 | 33.42998 | -17.03950 | 21922 ft | 453 kts | 122° |
| 2026-04-23 21:12 | 33.41479 | -17.00639 | 21019 ft | 453 kts | 120° |
| 2026-04-23 21:12 | 33.40026 | -16.97301 | 20328 ft | 449 kts | 119° |
| 2026-04-23 21:13 | 33.38612 | -16.94027 | 19932 ft | 436 kts | 120° |
| 2026-04-23 21:13 | 33.37235 | -16.90862 | 19607 ft | 424 kts | 120° |
| 2026-04-23 21:13 | 33.35871 | -16.87758 | 19058 ft | 419 kts | 120° |
| 2026-04-23 21:13 | 33.34518 | -16.84701 | 18518 ft | 414 kts | 121° |
| 2026-04-23 21:14 | 33.33178 | -16.81682 | 17932 ft | 408 kts | 121° |
| 2026-04-23 21:14 | 33.31856 | -16.78708 | 17406 ft | 401 kts | 121° |
| 2026-04-23 21:14 | 33.30557 | -16.75790 | 16880 ft | 395 kts | 121° |
| 2026-04-23 21:14 | 33.29275 | -16.72912 | 16364 ft | 389 kts | 121° |
| 2026-04-23 21:15 | 33.28026 | -16.70112 | 15865 ft | 384 kts | 121° |
| 2026-04-23 21:15 | 33.26777 | -16.67315 | 15361 ft | 379 kts | 121° |
| 2026-04-23 21:15 | 33.25543 | -16.64552 | 14862 ft | 374 kts | 121° |
| 2026-04-23 21:15 | 33.24322 | -16.61822 | 14376 ft | 370 kts | 121° |
| 2026-04-23 21:16 | 33.23116 | -16.59126 | 13885 ft | 366 kts | 121° |
| 2026-04-23 21:16 | 33.21922 | -16.56458 | 13378 ft | 361 kts | 121° |
| 2026-04-23 21:16 | 33.21140 | -16.54712 | 13066 ft | 358 kts | 121° |
| 2026-04-23 21:16 | 33.19585 | -16.51247 | 12449 ft | 351 kts | 121° |
| 2026-04-23 21:17 | 33.18441 | -16.48696 | 11984 ft | 346 kts | 121° |
| 2026-04-23 21:17 | 33.17311 | -16.46181 | 11549 ft | 342 kts | 121° |
| 2026-04-23 21:17 | 33.16566 | -16.44525 | 11249 ft | 339 kts | 121° |
| 2026-04-23 21:17 | 33.15455 | -16.42052 | 10812 ft | 337 kts | 121° |
| 2026-04-23 21:18 | 33.14347 | -16.39590 | 10443 ft | 332 kts | 121° |
| 2026-04-23 21:18 | 33.13279 | -16.37213 | 10309 ft | 318 kts | 121° |
| 2026-04-23 21:18 | 33.12250 | -16.34924 | 10084 ft | 310 kts | 121° |
| 2026-04-23 21:18 | 33.11223 | -16.32646 | 9917 ft | 311 kts | 121° |
| 2026-04-23 21:19 | 33.10200 | -16.30377 | 9786 ft | 310 kts | 121° |
| 2026-04-23 21:19 | 33.09179 | -16.28113 | 9490 ft | 309 kts | 121° |
| 2026-04-23 21:19 | 33.08177 | -16.25892 | 9163 ft | 305 kts | 121° |
| 2026-04-23 21:19 | 33.07181 | -16.23683 | 8834 ft | 300 kts | 120° |
| 2026-04-23 21:20 | 33.06200 | -16.21512 | 8531 ft | 295 kts | 121° |
| 2026-04-23 21:20 | 33.05229 | -16.19386 | 8221 ft | 289 kts | 124° |
| 2026-04-23 21:20 | 33.03880 | -16.17672 | 7722 ft | 284 kts | 151° |
| 2026-04-23 21:20 | 33.02045 | -16.16905 | 7413 ft | 282 kts | 180° |
| 2026-04-23 21:21 | 33.00084 | -16.16832 | 7219 ft | 282 kts | 183° |
| 2026-04-23 21:21 | 32.98130 | -16.16783 | 6937 ft | 279 kts | 183° |
| 2026-04-23 21:21 | 32.96202 | -16.16725 | 6635 ft | 274 kts | 182° |
| 2026-04-23 21:21 | 32.94312 | -16.16660 | 6331 ft | 269 kts | 182° |
| 2026-04-23 21:22 | 32.92458 | -16.16591 | 6043 ft | 264 kts | 182° |
| 2026-04-23 21:22 | 32.90643 | -16.16523 | 5762 ft | 259 kts | 182° |
| 2026-04-23 21:22 | 32.88856 | -16.16501 | 5478 ft | 252 kts | 189° |
| 2026-04-23 21:22 | 32.87245 | -16.17154 | 5087 ft | 246 kts | 217° |
| 2026-04-23 21:23 | 32.86085 | -16.18548 | 4984 ft | 231 kts | 240° |
| 2026-04-23 21:23 | 32.85530 | -16.20258 | 4827 ft | 216 kts | 262° |
| 2026-04-23 21:23 | 32.85449 | -16.22053 | 4369 ft | 215 kts | 269° |
| 2026-04-23 21:23 | 32.85407 | -16.23789 | 4090 ft | 208 kts | 268° |
| 2026-04-23 21:24 | 32.85361 | -16.25444 | 3984 ft | 190 kts | 268° |
| 2026-04-23 21:24 | 32.85315 | -16.26960 | 3658 ft | 181 kts | 268° |
| 2026-04-23 21:24 | 32.85270 | -16.28459 | 3430 ft | 185 kts | 268° |
| 2026-04-23 21:24 | 32.85225 | -16.29989 | 3298 ft | 184 kts | 268° |
| 2026-04-23 21:25 | 32.85181 | -16.31511 | 3176 ft | 184 kts | 268° |
| 2026-04-23 21:25 | 32.85352 | -16.33000 | 3046 ft | 184 kts | 297° |
| 2026-04-23 21:25 | 32.86272 | -16.34028 | 2963 ft | 187 kts | 337° |
| 2026-04-23 21:25 | 32.87555 | -16.34242 | 2777 ft | 187 kts | 358° |
| 2026-04-23 21:26 | 32.88851 | -16.34283 | 2760 ft | 186 kts | 358° |
| 2026-04-23 21:26 | 32.90144 | -16.34320 | 2954 ft | 187 kts | 358° |
| 2026-04-23 21:26 | 32.91450 | -16.34361 | 3004 ft | 187 kts | 358° |
| 2026-04-23 21:26 | 32.92739 | -16.34407 | 2998 ft | 187 kts | 358° |
| 2026-04-23 21:27 | 32.94044 | -16.34458 | 2869 ft | 187 kts | 357° |
| 2026-04-23 21:27 | 32.95318 | -16.34509 | 2619 ft | 175 kts | 357° |
| 2026-04-23 21:27 | 32.96473 | -16.34556 | 2353 ft | 158 kts | 357° |
| 2026-04-23 21:27 | 32.97537 | -16.34599 | 2043 ft | 149 kts | 357° |
| 2026-04-23 21:28 | 32.98541 | -16.34632 | 1768 ft | 139 kts | 357° |
| 2026-04-23 21:28 | 32.99477 | -16.34660 | 1573 ft | 135 kts | 358° |
| 2026-04-23 21:28 | 33.00396 | -16.34679 | 1363 ft | 132 kts | 358° |
| 2026-04-23 21:28 | 33.01312 | -16.34670 | 1173 ft | 131 kts | 358° |
| 2026-04-23 21:29 | 33.02216 | -16.34686 | 981 ft | 131 kts | 357° |
| 2026-04-23 21:29 | 33.03100 | -16.34744 | 822 ft | 127 kts | 348° |
| 2026-04-23 21:29 | 33.03970 | -16.34864 | 673 ft | 124 kts | 355° |
| 2026-04-23 21:29 | 33.04828 | -16.34892 | 525 ft | 126 kts | 355° |
| 2026-04-23 21:30 | 33.05701 | -16.34916 | 333 ft | 124 kts | 354° |
| 2026-04-23 21:30 | 33.06564 | -16.34956 | 245 ft | 112 kts | 356° |
| 2026-04-23 21:30 | 33.07166 | -16.34985 | 251 ft | 62 kts | 358° |
| 2026-04-23 21:30 | 33.07446 | -16.34985 | 248 ft | 19 kts | 14° |
| 2026-04-23 21:31 | 33.07471 | -16.34999 | 247 ft | 12 kts | 174° |
| 2026-04-23 21:31 | 33.07353 | -16.34992 | 251 ft | 23 kts | 180° |
| 2026-04-23 21:31 | 33.07157 | -16.34988 | 251 ft | 32 kts | 179° |
| 2026-04-23 21:31 | 33.07007 | -16.34979 | 251 ft | 13 kts | 176° |
| 2026-04-23 21:32 | 33.06960 | -16.34913 | 250 ft | 15 kts | 90° |
| 2026-04-23 21:32 | 33.06970 | -16.34777 | 249 ft | 13 kts | 85° |
| 2026-04-23 21:32 | 33.06970 | -16.34665 | 249 ft | 7 kts | 90° |
| 2026-04-23 21:32 | 33.06972 | -16.34631 | 249 ft | 2 kts | 68° |
| 2026-04-23 21:33 | 33.06983 | -16.34621 | 249 ft | 1 kts | 13° |
| 2026-04-23 21:33 | 33.06986 | -16.34622 | 249 ft | 1 kts | 352° |
| 2026-04-23 21:33 | 33.06993 | -16.34629 | 249 ft | 2 kts | 317° |
| 2026-04-23 21:33 | 33.06999 | -16.34635 | 249 ft | 0 kts | 314° |